Saturday, August 30, 2014
20:23 UTC
  |  Log In   |  Register Free
Airport Search:

Meyers-Diver'S Airport
(3TE)

Meyers-Diver'S Airport Diagram
No Airport Diagram Available

FAA data valid effective July 24, 2014 until September 18, 2014 (unless otherwise noted).

 
 
 
 
 
 
 
 
 
 
 
 
 
 

Current Aviation Weather for Meyers-Diver'S Airport (3TE)

The most recent METAR observation for KADG was updated at: 1953 UTC
METAR Summary (Translated METAR)
KADG
301953Z AUTO 22018G25KT 10SM CLR 29/19 A2992 RMK AO2 PK WND 22027/1927 SLP128 T02940189
KDUH
(20.4 nm SE from KADG)
301954Z AUTO 22008G22KT 10SM SCT095 29/20 A2993 RMK AO2
TAF Summary (Translated TAF)
KTOL
(20.7 nm SE from KADG)
301731Z 3018/3118 22010G20KT P6SM SCT070 BKN120 FM301900 20012G22KT P6SM VCSH SCT050 OVC100 TEMPO 3021/3024 4SM -TSRA OVC025CB FM310200 21012KT 5SM -SHRA BKN030 OVC080 FM310900 23007KT 4SM BR OVC015 FM311400 23010KT P6SM BKN025
  Airport Weather Conditions for 3TE

Current weather conditions are
not available for 3TE


The nearest NOAA weather station
is at ADG, (11.3 nm SW from 3TE)
  
 Current Weather at ADG
85° F
Fair and Breezy
Southwest winds at 20.7 mph
ADG NOAA Radar

Pressure: 29.92 in
Humidity: 53%
Wind: from the Southwest at 20.7 gusting to 28.8 MPH (18 gusting to 25 KT)
Dew Point: 66.0°F
Visibility: 10.00 mi


Airport Weather Forecast for 3TE

Translated METAR and TAF for KADG
Translated METAR for KADG (2017 UTC 30 August 2014)
found at http://aviationweather.gov/adds/metars/
 
METAR text: KADG 301953Z AUTO 22018G25KT 10SM CLR 29/19 A2992 RMK AO2 PK WND 22027/1927 SLP128 T02940189
Conditions at: KADG (ADRIAN , MI, US) observed 1953 UTC 30 August 2014
Temperature: 29.4°C (85°F)
Dewpoint: 18.9°C (66°F) [RH = 53%]
Pressure (altimeter): 29.92 inches Hg (1013.3 mb)
[Sea-level pressure: 1012.8 mb]
Winds: from the SW (220 degrees) at 21 MPH (18 knots; 9.4 m/s)
gusting to 29 MPH (25 knots; 13.0 m/s)
Visibility: 10 or more miles (16+ km)
Ceiling: at least 12,000 feet AGL
Clouds: sky clear below 12,000 feet AGL
Weather: automated observation with no human augmentation;
there may or may not be significant weather present at this time
Translated TAF for KADG

There is no translated TAF available for this airport

Find All Airport Services Find A Hotel Find A Rental Car Find A Golf Course Find A Restaurant $100 Hamburger



FBO's on the Field
FBO Company Facility Photos Services Transportation Aviation Fuel Prices: Prices include tax
Catering Weather Repair Courtesy Rental Type 100LL JetA JetA+ MOGAS 8087
 
Village of Boyceville

This FBO has not yet been rated
FS:Independent
Last Updated: Aug-22
Login to update fuel prices
SS:
Contact Village of BoycevilleMore FBO Information
 
Add another FBO Facility Photos Catering Weather Repair Courtesy Rental Type 100LL JetA JetA+ MOGAS 8087
Services Transportation Aviation Fuel Prices: Prices include tax


GlobalAir.com Airport Resource Center model-print
model-print
model-print
model-print